METAR Data
IDs: Format: Raw Decoded Include TAF

Data at: 0939 UTC 26 Jan 2020

KAUW 260854Z AUTO 29008KT 10SM OVC011 M01/M02 A2983 RMK AO2 SLP117 T10061022 53001
KAUW 260754Z AUTO 30009KT 10SM OVC011 00/M02 A2982 RMK AO2 SLP115 T00001022
KAUW 260654Z AUTO 30007KT 10SM OVC010 00/M02 A2982 RMK AO2 SLP113 T00001017
KAUW 260554Z AUTO 30004KT 10SM OVC013 00/M02 A2982 RMK AO2 SLP116 60000 T00001017 10011 20000 400171006 51003
KAUW 260549Z AUTO 31006KT 10SM OVC013 00/M02 A2982 RMK AO2
KAUW 260502Z AUTO 30010KT 10SM BKN017 OVC070 00/M02 A2982 RMK AO2 T00001017
KAUW 260454Z AUTO 31009KT 10SM SCT015 OVC070 00/M01 A2982 RMK AO2 SNB0356E10 SLP114 P0000 T00001011
KAUW 260418Z AUTO 30007KT 10SM OVC015 00/M01 A2981 RMK AO2 SNB0356E10 P0000 T00001011
KAUW 260354Z AUTO 30005KT 10SM OVC012 00/M01 A2981 RMK AO2 SNE0258B23E38 SLP112 P0000 T00001011
KAUW 260333Z AUTO 30007KT 8SM -SN OVC014 00/M01 A2981 RMK AO2 SNE0258B23 P0000 T00001011
KAUW 260254Z AUTO 31005KT 6SM -SN BR BKN016 OVC045 00/M01 A2981 RMK AO2 SNB04 SLP111 P0000 60000 T00001011 50000
KAUW 260251Z AUTO 31005KT 6SM -SN BR BKN016 OVC047 00/M01 A2981 RMK AO2 SNB04 P0000
KAUW 260240Z AUTO 31005KT 8SM -SN SCT018 OVC047 00/M01 A2981 RMK AO2 SNB04 P0000 T00001011
KAUW 260154Z AUTO 31007KT 10SM BKN018 BKN032 01/M02 A2981 RMK AO2 SNE39 SLP111 P0000 T00061017
KAUW 260150Z AUTO 32007KT 10SM BKN018 BKN034 00/M02 A2981 RMK AO2 SNE39 P0000
KAUW 260107Z AUTO 32009KT 8SM -SN FEW013 BKN036 OVC065 01/M02 A2981 RMK AO2 P0000 T00061017
KAUW 260054Z AUTO 32010G15KT 7SM -SN SCT014 BKN023 OVC045 01/M01 A2981 RMK AO2 SNB18 SLP110 P0000 T00061011
KAUW 260046Z AUTO 32007KT 7SM -SN SCT014 OVC023 01/M01 A2981 RMK AO2 SNB18 P0000 T00061011
KAUW 260036Z AUTO 31007KT 7SM -SN FEW010 BKN014 OVC022 01/M01 A2981 RMK AO2 SNB18 P0000 T00061006
KAUW 252354Z AUTO 32006KT 10SM BKN015 OVC021 01/M01 A2980 RMK AO2 UPB19E32 SLP107 P0000 60000 T00111006 10017 20011 51009
KAUW 252337Z AUTO 32005KT 9SM BKN014 OVC018 01/M01 A2980 RMK AO2 UPB19E32 P0000 T00111006
KAUW 252254Z AUTO 32007KT 10SM SCT016 BKN021 OVC033 01/M01 A2979 RMK AO2 SLP105 T00111006
KAUW 252154Z AUTO 32004KT 10SM BKN018 OVC025 02/M01 A2978 RMK AO2 SLP100 T00171006
KAUW 252137Z AUTO 33005KT 10SM SCT012 OVC019 02/M01 A2977 RMK AO2 T00171006
KAUW 252120Z AUTO 32005KT 10SM BKN012 OVC017 02/M01 A2977 RMK AO2 T00171006
KAUW 252054Z AUTO 33005KT 10SM OVC020 02/M01 A2977 RMK AO2 SLP097 T00171011 58000
KAUW 251954Z AUTO 34006KT 10SM SCT014 BKN021 OVC035 02/M01 A2977 RMK AO2 SLP097 T00171006
KAUW 251854Z AUTO 33006KT 10SM OVC014 01/M01 A2977 RMK AO2 SLP098 T00111006
KAUW 251831Z AUTO 35008KT 10SM OVC014 01/M01 A2977 RMK AO2 T00111011
KAUW 251818Z AUTO 34008KT 8SM OVC015 01/M01 A2977 RMK AO2 T00111011
KAUW 251754Z AUTO 34008KT 10SM OVC013 01/M01 A2978 RMK AO2 SNE04 SLP100 P0000 60003 T00111011 10011 21006 58001
KAUW 251654Z AUTO 35006KT 4SM -SN BR BKN010 OVC014 01/M01 A2979 RMK AO2 CIG 008V012 SLP104 P0000 T00061011
KAUW 251624Z AUTO 35006KT 4SM -SN BR BKN012 OVC037 01/M01 A2978 RMK AO2 P0000 T00061011
KAUW 251604Z AUTO 35005KT 2 1/2SM -SN BR FEW008 BKN011 OVC034 00/M01 A2978 RMK AO2 P0000 T00001011
KAUW 251554Z AUTO 34006KT 6SM -SN BR BKN011 BKN037 OVC044 00/M01 A2978 RMK AO2 SLP101 P0000 T00001011
KAUW 251503Z AUTO 34005KT 3SM -SN BR OVC011 00/M01 A2978 RMK AO2 P0000 T00001011
KAUW 251454Z AUTO 33006KT 2 1/2SM -SN BR BKN011 OVC050 M01/M01 A2978 RMK AO2 SLP101 P0000 60003 T10061011 51004
KAUW 251452Z AUTO 34004KT 2 1/2SM -SN BR SCT009 BKN012 OVC036 M01/M01 A2978 RMK AO2 P0000
KAUW 251445Z AUTO 33004KT 2 1/2SM -SN BR BKN012 OVC039 M01/M01 A2978 RMK AO2 P0000 T10061011
KAUW 251436Z AUTO 33004KT 3SM -SN BR BKN008 BKN012 OVC049 M01/M01 A2978 RMK AO2 P0000 T10061011
KAUW 251431Z AUTO 33004KT 3SM -SN BR SCT008 SCT012 OVC036 M01/M01 A2978 RMK AO2 P0000 T10061011
KAUW 251412Z AUTO 33004KT 3SM -SN BR FEW010 OVC030 M01/M01 A2978 RMK AO2 P0000 T10061011
KAUW 251354Z AUTO 34005KT 1SM -SN BR FEW008 OVC026 M01/M01 A2978 RMK AO2 SLP101 P0002 T10061011
KAUW 251341Z AUTO 34006KT 1 3/4SM -SN BR FEW008 FEW013 OVC030 M01/M02 A2978 RMK AO2 P0001 T10061017
KAUW 251325Z AUTO 34004KT 2 1/2SM -SN BR OVC026 M01/M02 A2977 RMK AO2 P0001 T10061017
KAUW 251307Z AUTO 34004KT 1 3/4SM -SN BR OVC026 M01/M02 A2977 RMK AO2 P0001 T10061017
KAUW 251259Z AUTO 35005KT 2SM -SN BR FEW024 OVC030 M01/M02 A2977 RMK AO2 P0000 T10061017
KAUW 251254Z AUTO 35004KT 1 1/2SM -SN BR OVC028 M01/M02 A2977 RMK AO2 SLP097 P0001 T10061017
KAUW 251245Z AUTO 36004KT 1 1/2SM -SN BR OVC028 M01/M02 A2977 RMK AO2 P0001 T10061017
KAUW 251218Z AUTO 36005KT 2 1/2SM -SN BR FEW005 SCT015 OVC030 M01/M02 A2976 RMK AO2 P0001 T10061017
KAUW 251204Z AUTO 01006KT 1SM -SN BR FEW006 SCT010 OVC017 M01/M02 A2976 RMK AO2 P0001 T10061017
KAUW 251154Z AUTO 04006KT 3/4SM -SN BR SCT006 BKN012 OVC017 M01/M01 A2976 RMK AO2 SLP094 P0003 60006 70014 I6000 T10061011 10000 21006 55001
KAUW 251140Z AUTO 36006KT 1 1/4SM -SN BR SCT006 OVC017 M01/M01 A2975 RMK AO2 P0002 T10061011
KAUW 251111Z AUTO 33005KT 1 1/4SM -SN BR BKN006 OVC013 M01/M01 A2975 RMK AO2 P0001 T10061011
KAUW 251054Z AUTO 33004KT 1SM -SN BR FEW006 SCT011 OVC017 M01/M01 A2975 RMK AO2 SNB17 SLP091 P0001 T10061011
KAUW 251040Z AUTO 33006KT 1 3/4SM -SN BR FEW006 SCT009 OVC025 00/M01 A2975 RMK AO2 SNB17 P0000 T00001011
KAUW 251033Z AUTO 33005KT 2SM -SN BR SCT009 BKN013 OVC029 00/M01 A2975 RMK AO2 SNB17 P0000 T00001011
KAUW 251008Z AUTO 34004KT 8SM OVC011 00/M01 A2975 RMK AO2 T00001011
KAUW 250957Z AUTO 34005KT 5SM BR BKN009 OVC016 00/M01 A2975 RMK AO2 CIG 006V013 T00001006
KAUW 250954Z AUTO 34003KT 4SM BR OVC011 00/M01 A2976 RMK AO2 SLP093 I1000 T00001006
KAUW 250933Z AUTO 33004KT 4SM BR BKN009 BKN014 OVC020 00/M01 A2976 RMK AO2 CIG 006V011 I1000 T00001006
KAUW 250854Z AUTO 36003KT 7SM BKN010 BKN017 OVC028 00/M01 A2976 RMK AO2 SLP095 60002 I1000 I3000 T00001006 58007
KAUW 250847Z AUTO 36003KT 9SM BKN012 BKN017 OVC032 00/M01 A2976 RMK AO2 I1000 T00001006
KAUW 250838Z AUTO 34004KT 8SM FEW008 BKN018 OVC032 00/M01 A2976 RMK AO2 I1000 T00001006
KAUW 250813Z AUTO 35004KT 5SM BR SCT008 BKN012 OVC044 00/M01 A2977 RMK AO2 I1000 T00001006
KAUW 250806Z AUTO 35004KT 5SM BR SCT008 OVC036 00/M01 A2977 RMK AO2 T00001006
KAUW 250754Z AUTO 35004KT 6SM BR BKN009 OVC036 00/M01 A2977 RMK AO2 SNE24 CIG 006V011 SLP098 P0000 T00001006
KAUW 250715Z AUTO 34005KT 3SM -SN BR FEW006 BKN040 OVC075 00/M01 A2977 RMK AO2 P0000 T00001006
KAUW 250654Z AUTO 33006KT 2 1/2SM -SN BR FEW007 OVC038 00/M01 A2978 RMK AO2 SLP102 P0002 T00001006
KAUW 250650Z AUTO 33006KT 2 1/2SM -SN BR FEW004 SCT031 OVC038 00/M01 A2978 RMK AO2 P0002
KAUW 250638Z AUTO 35004KT 3SM -SN BR FEW004 SCT026 OVC038 00/M01 A2979 RMK AO2 P0002 T00001006
KAUW 250635Z AUTO 34004KT 2 1/2SM -SN BR FEW004 BKN024 OVC038 00/M01 A2979 RMK AO2 P0002 T00001006
KAUW 250554Z AUTO 35004KT 1 1/2SM -SN BR SCT007 BKN024 OVC036 00/M01 A2980 RMK AO2 SLP108 P0002 60004 T00001006 10006 20000 400111011 56008
KAUW 250546Z AUTO 34006KT 1 3/4SM -SN BR SCT007 BKN026 OVC037 00/M01 A2980 RMK AO2 P0002 T00001006
KAUW 250537Z AUTO 34005KT 1 3/4SM -SN BR BKN005 BKN024 OVC037 00/M01 A2980 RMK AO2 P0002 T00001006
KAUW 250532Z AUTO 34005KT 2SM -SN BR FEW003 BKN008 OVC037 00/M01 A2980 RMK AO2 P0002 T00001006
KAUW 250506Z AUTO 34005KT 1SM -SN BR FEW006 SCT009 OVC015 00/M01 A2980 RMK AO2 P0001 T00001006
KAUW 250454Z AUTO 35004KT 3/4SM -SN BR SCT008 OVC013 00/M01 A2981 RMK AO2 SNB11 SLP110 P0002 T00001006
KAUW 250440Z AUTO 35004KT 1 1/2SM -SN BR SCT008 BKN023 OVC037 00/M01 A2981 RMK AO2 SNB11 P0001 T00001006
KAUW 250416Z AUTO 34004KT 2 1/2SM -SN BR FEW008 BKN024 OVC036 00/M01 A2981 RMK AO2 SNB11 P0000 T00001006
KAUW 250411Z AUTO 35003KT 4SM -SN BR SCT010 BKN015 OVC036 01/M01 A2981 RMK AO2 SNB11 P0000 T00061006
KAUW 250354Z AUTO 35005KT 6SM BR BKN010 OVC015 01/M01 A2981 RMK AO2 SNE0255 CIG 008V012 SLP112 P0000 T00061006
KAUW 250254Z AUTO 35004KT 6SM -SN BR OVC010 01/M01 A2982 RMK AO2 SNB45 SLP116 P0000 60000 T00061006 56003
KAUW 250250Z AUTO 36005KT 5SM -SN BR OVC010 01/M01 A2982 RMK AO2 SNB45 P0000
KAUW 250221Z AUTO 01005KT 7SM BKN009 BKN036 OVC060 01/M01 A2983 RMK AO2 CIG 006V012 T00061006
KAUW 250154Z AUTO 36005KT 5SM BR SCT009 BKN039 OVC060 01/M01 A2983 RMK AO2 SNB30E51 SLP119 P0000 T00061006
KAUW 250152Z AUTO 36005KT 4SM BR SCT009 BKN039 OVC060 00/M01 A2983 RMK AO2 SNB30E51 P0000
KAUW 250143Z AUTO 35005KT 3SM -SN BR SCT007 BKN012 OVC037 00/M01 A2984 RMK AO2 SNB30 P0000 T00001006
KAUW 250131Z AUTO 01005KT 2 1/2SM -SN BR OVC008 01/M01 A2985 RMK AO2 SNB30 P0000 T00061006
KAUW 250054Z AUTO 01005KT 4SM BR OVC008 01/00 A2986 RMK AO2 CIG 004V011 SLP128 T00060000
KAUW 250019Z AUTO 35004KT 3SM BR OVC008 01/00 A2986 RMK AO2 CIG 005V013 T00060000
KAUW 242354Z AUTO 36003KT 3SM BR OVC014 01/M01 A2986 RMK AO2 SNB44E54 SLP127 P0000 60001 T00061006 10011 20006 58002
KAUW 242301Z AUTO 01003KT 4SM BR OVC014 01/00 A2986 RMK AO2 T00060000
KAUW 242254Z AUTO 01004KT 4SM BR SCT011 OVC017 01/00 A2986 RMK AO2 SNE01 SLP130 P0000 T00060000
KAUW 242206Z AUTO 02004KT 3SM BR OVC014 01/00 A2986 RMK AO2 SNE01 P0000 T00060000
KAUW 242154Z AUTO 02003KT 3SM -SN BR SCT011 OVC016 01/00 A2986 RMK AO2 SNB2058 SLP129 P0000 T00060000
KAUW 242152Z AUTO 03004KT 2 1/2SM -SN BR FEW009 OVC016 01/M01 A2986 RMK AO2 SNB2058 P0000